createdAt,value
2022-11-24T00:00:35.354Z,95.80
2022-11-24T00:03:01.972Z,95.83
2022-11-24T00:05:28.444Z,96.16
2022-11-24T00:07:54.915Z,95.60
2022-11-24T00:10:21.456Z,96.81
2022-11-24T00:12:47.842Z,95.84
2022-11-24T00:15:14.243Z,95.16
2022-11-24T00:17:40.636Z,95.14
2022-11-24T00:20:07.637Z,95.25
2022-11-24T00:22:34.074Z,94.72
2022-11-24T00:25:00.485Z,94.75
2022-11-24T00:27:26.858Z,95.55
2022-11-24T00:29:53.289Z,95.24
2022-11-24T00:32:19.672Z,94.38
2022-11-24T00:34:47.303Z,94.50
2022-11-24T00:37:13.728Z,94.31
2022-11-24T00:39:40.097Z,94.62
2022-11-24T00:42:06.524Z,94.63
2022-11-24T00:44:33.141Z,94.30
2022-11-24T00:46:59.812Z,93.76
2022-11-24T00:49:26.269Z,93.67
2022-11-24T00:51:52.632Z,93.76
2022-11-24T00:54:19.104Z,93.59
2022-11-24T00:56:45.648Z,94.08
2022-11-24T00:59:12.059Z,94.18
2022-11-24T01:01:39.027Z,94.52
2022-11-24T01:04:05.815Z,93.86
2022-11-24T01:06:35.775Z,94.37
2022-11-24T01:09:03.195Z,93.06
2022-11-24T01:11:53.337Z,93.89
2022-11-24T01:14:21.324Z,94.53
2022-11-24T01:16:47.908Z,94.92
2022-11-24T01:19:14.678Z,94.51
2022-11-24T01:21:41.677Z,93.42
2022-11-24T01:24:08.104Z,92.79
2022-11-24T01:26:34.500Z,92.77
2022-11-24T01:29:00.895Z,93.10
2022-11-24T01:31:28.132Z,93.42
2022-11-24T01:33:54.970Z,94.09
2022-11-24T01:36:22.248Z,94.81
2022-11-24T01:38:48.786Z,94.50
2022-11-24T01:41:21.105Z,95.06
2022-11-24T01:43:48.470Z,94.77
2022-11-24T01:46:21.957Z,94.22
2022-11-24T01:49:13.428Z,93.89
2022-11-24T01:51:46.378Z,93.71
2022-11-24T01:54:29.670Z,93.77
2022-11-24T01:57:01.686Z,93.43
2022-11-24T01:59:28.642Z,92.98
2022-11-24T02:01:56.762Z,92.69
2022-11-24T02:04:28.723Z,92.81
2022-11-24T02:06:57.861Z,93.01
2022-11-24T02:09:29.633Z,92.55
2022-11-24T02:11:58.679Z,92.59
2022-11-24T02:14:26.467Z,92.44
2022-11-24T02:16:53.176Z,92.35
2022-11-24T02:19:42.223Z,92.21
2022-11-24T02:22:27.753Z,91.35
2022-11-24T02:25:07.797Z,91.30
2022-11-24T02:27:34.236Z,91.60
2022-11-24T02:30:00.869Z,91.35
2022-11-24T02:32:28.975Z,90.76
2022-11-24T02:35:06.501Z,90.74
2022-11-24T02:37:33.134Z,90.55
2022-11-24T02:39:59.515Z,90.62
2022-11-24T02:42:30.367Z,89.82
2022-11-24T02:45:00.383Z,90.86
2022-11-24T02:47:27.798Z,90.27
2022-11-24T02:49:54.189Z,88.97
2022-11-24T02:52:20.597Z,89.07
2022-11-24T02:54:47.110Z,90.24
2022-11-24T02:57:13.515Z,91.42
2022-11-24T02:59:39.894Z,91.59
2022-11-24T03:02:06.277Z,91.08
2022-11-24T03:04:32.995Z,91.28
2022-11-24T03:06:59.567Z,91.30
2022-11-24T03:09:26.026Z,91.17
2022-11-24T03:11:52.443Z,91.13
2022-11-24T03:14:18.930Z,91.43
2022-11-24T03:16:45.394Z,91.74
2022-11-24T03:19:11.810Z,91.11
2022-11-24T03:21:38.293Z,91.24
2022-11-24T03:24:05.103Z,90.99
2022-11-24T03:26:34.766Z,91.41
2022-11-24T03:29:01.319Z,91.37
2022-11-24T03:31:27.827Z,91.72
2022-11-24T03:33:54.343Z,91.84
2022-11-24T03:36:20.765Z,91.43
2022-11-24T03:38:47.288Z,91.04
2022-11-24T03:41:13.737Z,91.43
2022-11-24T03:43:43.639Z,92.28
2022-11-24T03:46:10.976Z,92.99
2022-11-24T03:48:37.369Z,92.27
2022-11-24T03:51:04.020Z,92.19
2022-11-24T03:53:33.551Z,93.87
2022-11-24T03:56:01.979Z,94.18
2022-11-24T03:58:28.945Z,94.42
2022-11-24T04:00:56.050Z,94.31
2022-11-24T04:03:23.200Z,94.80
2022-11-24T04:05:49.898Z,95.80
2022-11-24T04:08:17.463Z,95.38
2022-11-24T04:10:44.326Z,96.50
2022-11-24T04:13:13.630Z,96.39
2022-11-24T04:15:41.071Z,95.86
2022-11-24T04:18:08.345Z,94.96
2022-11-24T04:20:35.816Z,95.17
2022-11-24T04:23:02.382Z,95.79
2022-11-24T04:25:28.872Z,95.33
2022-11-24T04:27:56.287Z,95.93
2022-11-24T04:30:24.836Z,95.71
2022-11-24T04:32:51.521Z,96.02
2022-11-24T04:35:18.784Z,97.14
2022-11-24T04:37:45.457Z,97.60
2022-11-24T04:40:12.661Z,96.72
2022-11-24T04:42:39.203Z,97.03
2022-11-24T04:45:06.999Z,96.40
2022-11-24T04:47:33.585Z,95.87
2022-11-24T04:50:00.436Z,95.97
2022-11-24T04:52:27.105Z,96.03
2022-11-24T04:54:53.611Z,95.09
2022-11-24T04:57:22.844Z,94.65
2022-11-24T04:59:50.902Z,94.77
2022-11-24T05:02:17.626Z,93.95
2022-11-24T05:04:44.617Z,93.57
2022-11-24T05:07:17.946Z,93.71
2022-11-24T05:10:04.514Z,93.21
2022-11-24T05:12:31.484Z,93.36
2022-11-24T05:14:59.319Z,93.39
2022-11-24T05:17:29.983Z,92.44
2022-11-24T05:19:56.692Z,92.94
2022-11-24T05:22:23.099Z,92.61
2022-11-24T05:24:49.567Z,92.29
2022-11-24T05:27:16.171Z,92.48
2022-11-24T05:29:42.537Z,92.26
2022-11-24T05:32:08.923Z,92.20
2022-11-24T05:34:35.659Z,92.25
2022-11-24T05:37:03.642Z,92.58
2022-11-24T05:39:34.269Z,91.64
2022-11-24T05:42:22.540Z,90.60
2022-11-24T05:44:49.228Z,90.04
2022-11-24T05:47:15.686Z,89.13
2022-11-24T05:49:42.229Z,88.92
2022-11-24T05:52:08.883Z,89.87
2022-11-24T05:54:35.423Z,91.45
2022-11-24T05:57:02.240Z,93.79
2022-11-24T05:59:28.607Z,94.03
2022-11-24T06:01:55.239Z,93.36
2022-11-24T06:04:21.753Z,92.49
2022-11-24T06:06:48.271Z,92.26
2022-11-24T06:09:15.025Z,93.15
2022-11-24T06:11:41.503Z,93.64
2022-11-24T06:14:11.172Z,93.89
2022-11-24T06:16:38.041Z,93.41
2022-11-24T06:19:04.611Z,93.46
2022-11-24T06:21:31.913Z,94.07
2022-11-24T06:23:58.663Z,94.36
2022-11-24T06:26:25.062Z,93.79
2022-11-24T06:28:51.712Z,94.94
2022-11-24T06:31:18.666Z,94.67
2022-11-24T06:33:45.624Z,95.35
2022-11-24T06:36:14.584Z,95.74
2022-11-24T06:38:41.301Z,95.89
2022-11-24T06:41:11.876Z,95.34
2022-11-24T06:43:38.559Z,95.65
2022-11-24T06:46:05.267Z,94.53
2022-11-24T06:48:32.316Z,95.23
2022-11-24T06:51:04.191Z,95.09
2022-11-24T06:53:37.705Z,95.23
2022-11-24T06:56:16.365Z,95.08
2022-11-24T06:58:49.008Z,94.81
2022-11-24T07:01:23.618Z,94.76
2022-11-24T07:03:51.521Z,95.70
2022-11-24T07:06:19.078Z,95.28
2022-11-24T07:08:46.247Z,95.05
2022-11-24T07:11:15.593Z,95.56
2022-11-24T07:13:46.170Z,94.52
2022-11-24T07:16:21.611Z,93.69
2022-11-24T07:18:50.042Z,95.38
2022-11-24T07:21:17.129Z,96.10
2022-11-24T07:23:43.719Z,96.70
2022-11-24T07:26:12.041Z,97.21
2022-11-24T07:28:38.549Z,96.91
2022-11-24T07:31:10.136Z,97.06
2022-11-24T07:33:37.502Z,96.35
2022-11-24T07:36:05.828Z,95.47
2022-11-24T07:38:33.119Z,93.96
2022-11-24T07:41:08.162Z,93.71
2022-11-24T07:43:35.926Z,92.94
2022-11-24T07:46:02.964Z,94.05
2022-11-24T07:48:29.714Z,92.58
2022-11-24T07:51:00.371Z,92.43
2022-11-24T07:53:27.224Z,92.44
2022-11-24T07:55:59.771Z,91.26
2022-11-24T07:58:32.653Z,90.58
2022-11-24T08:01:00.409Z,90.17
2022-11-24T08:03:27.290Z,90.24
2022-11-24T08:08:46.301Z,89.13
2022-11-24T08:11:15.994Z,89.33
2022-11-24T08:13:43.216Z,89.58
2022-11-24T08:16:15.647Z,88.88
2022-11-24T08:18:42.911Z,88.44
2022-11-24T08:21:14.222Z,87.92
2022-11-24T08:23:41.404Z,87.36
2022-11-24T08:26:13.708Z,86.89
2022-11-24T08:28:40.210Z,86.67
2022-11-24T08:31:09.605Z,87.27
2022-11-24T08:33:36.933Z,87.76
2022-11-24T08:36:04.868Z,87.27
2022-11-24T08:38:33.745Z,86.66
2022-11-24T08:41:11.828Z,84.70
2022-11-24T08:43:38.601Z,83.46
2022-11-24T08:46:07.878Z,84.53
2022-11-24T08:48:35.083Z,84.17
2022-11-24T08:51:13.243Z,85.17
2022-11-24T08:53:40.658Z,83.41
2022-11-24T08:56:08.893Z,83.41
2022-11-24T08:58:35.808Z,84.17
2022-11-24T09:01:14.456Z,83.21
2022-11-24T09:03:48.481Z,81.74
2022-11-24T09:06:25.283Z,79.15
2022-11-24T09:08:54.323Z,75.26
2022-11-24T09:11:21.569Z,74.00
2022-11-24T09:13:48.208Z,73.74
2022-11-24T09:16:18.537Z,71.52
2022-11-24T09:18:46.021Z,76.17
2022-11-24T09:21:20.561Z,79.71
2022-11-24T09:23:48.980Z,80.53
2022-11-24T09:26:17.046Z,80.01
2022-11-24T09:28:44.013Z,79.79
2022-11-24T09:31:13.082Z,79.42
2022-11-24T09:33:40.687Z,78.52
2022-11-24T09:36:08.048Z,80.69
2022-11-24T09:38:34.855Z,80.84
2022-11-24T09:41:13.353Z,81.13
2022-11-24T09:43:50.167Z,82.66
2022-11-24T09:46:35.016Z,83.30
2022-11-24T09:49:04.819Z,81.80
2022-11-24T09:51:33.765Z,81.29
2022-11-24T09:54:09.222Z,79.73
2022-11-24T09:56:40.561Z,82.09
2022-11-24T09:59:36.879Z,81.59
2022-11-24T10:02:10.466Z,80.99
2022-11-24T10:04:46.214Z,82.53
2022-11-24T10:07:22.330Z,83.51
2022-11-24T10:09:54.942Z,84.52
2022-11-24T10:12:56.861Z,84.04
2022-11-24T10:15:33.744Z,82.16
2022-11-24T10:18:09.299Z,82.02
2022-11-24T10:20:47.299Z,81.88
2022-11-24T10:23:38.362Z,81.55
2022-11-24T10:26:14.880Z,82.05
2022-11-24T10:28:48.910Z,83.45
2022-11-24T10:31:35.493Z,83.84
2022-11-24T10:34:18.145Z,82.64
2022-11-24T10:37:03.555Z,81.02
2022-11-24T10:39:39.618Z,80.72
2022-11-24T10:42:16.150Z,80.42
2022-11-24T10:44:43.307Z,81.23
2022-11-24T10:47:20.304Z,79.75
2022-11-24T10:50:09.174Z,77.84
2022-11-24T10:52:44.834Z,77.60
2022-11-24T10:55:11.486Z,77.29
2022-11-24T10:57:40.474Z,77.35
2022-11-24T11:00:19.115Z,76.80
2022-11-24T11:02:48.302Z,70.85
2022-11-24T11:05:33.486Z,67.33
2022-11-24T11:08:19.987Z,66.94
2022-11-24T11:10:48.953Z,67.70
2022-11-24T11:13:29.133Z,66.45
2022-11-24T11:15:57.804Z,62.77
2022-11-24T11:18:33.444Z,63.17
2022-11-24T11:21:02.418Z,61.91
2022-11-24T11:23:32.622Z,64.60
2022-11-24T11:26:32.623Z,65.21
2022-11-24T11:34:53.466Z,67.31
2022-11-24T11:37:21.693Z,68.37
2022-11-24T11:39:50.852Z,67.54
2022-11-24T11:43:00.777Z,66.92
2022-11-24T11:45:28.913Z,67.73
2022-11-24T11:48:01.159Z,68.61
2022-11-24T11:50:47.450Z,69.39
2022-11-24T11:53:52.767Z,69.07
2022-11-24T11:56:27.076Z,69.91
2022-11-24T11:59:12.803Z,72.33
2022-11-24T12:02:10.492Z,70.54
2022-11-24T12:04:55.313Z,71.63
2022-11-24T12:07:27.049Z,71.14
2022-11-24T12:10:20.850Z,71.44
2022-11-24T12:12:50.736Z,69.99
2022-11-24T12:15:33.872Z,69.67
2022-11-24T12:18:48.308Z,69.44
2022-11-24T12:21:10.981Z,70.25
2022-11-24T12:23:59.170Z,69.66
2022-11-24T12:26:28.639Z,70.38
2022-11-24T12:29:30.945Z,69.39
2022-11-24T12:32:21.798Z,70.72
2022-11-24T12:34:59.856Z,68.52
2022-11-24T12:37:57.627Z,69.55
2022-11-24T12:40:24.084Z,69.53
2022-11-24T12:43:21.224Z,67.95
2022-11-24T12:46:19.595Z,67.68
2022-11-24T12:49:09.497Z,65.84
2022-11-24T12:51:40.986Z,64.92
2022-11-24T12:54:13.814Z,62.75
2022-11-24T12:57:35.787Z,65.54
2022-11-24T13:00:22.554Z,65.61
2022-11-24T13:02:52.233Z,64.26
2022-11-24T13:05:35.868Z,67.15
2022-11-24T13:08:04.338Z,64.24
2022-11-24T13:10:56.343Z,65.15
2022-11-24T13:13:29.740Z,64.69
2022-11-24T13:18:52.343Z,63.90
2022-11-24T13:21:31.169Z,59.34
2022-11-24T13:23:59.745Z,57.94
2022-11-24T13:26:31.800Z,53.51
2022-11-24T13:29:12.990Z,53.59
2022-11-24T13:31:48.317Z,55.68
2022-11-24T13:34:39.695Z,54.09
2022-11-24T13:37:35.219Z,61.36
2022-11-24T13:40:11.605Z,61.16
2022-11-24T13:42:56.429Z,60.13
2022-11-24T13:45:45.114Z,64.45
2022-11-24T13:48:21.437Z,63.04
2022-11-24T13:50:51.864Z,65.51
2022-11-24T13:53:41.762Z,65.79
2022-11-24T13:56:14.116Z,64.25
2022-11-24T13:58:40.695Z,65.22
2022-11-24T14:01:14.611Z,65.89
2022-11-24T14:04:07.088Z,64.71
2022-11-24T14:06:44.128Z,63.99
2022-11-24T14:09:25.120Z,65.01
2022-11-24T14:12:20.373Z,64.21
2022-11-24T14:14:49.993Z,65.74
2022-11-24T14:17:23.146Z,63.48
2022-11-24T14:19:56.940Z,62.40
2022-11-24T14:22:34.707Z,61.07
2022-11-24T14:25:02.493Z,57.31
2022-11-24T14:27:35.872Z,55.95
2022-11-24T14:30:16.894Z,56.96
2022-11-24T14:33:03.309Z,62.27
2022-11-24T14:35:31.836Z,64.66
2022-11-24T14:38:02.918Z,64.04
2022-11-24T14:40:39.733Z,64.78
2022-11-24T14:43:15.218Z,65.12
2022-11-24T14:46:00.765Z,64.86
2022-11-24T14:48:36.130Z,65.23
2022-11-24T14:51:16.063Z,64.94
2022-11-24T14:53:44.895Z,65.73
2022-11-24T14:56:25.055Z,66.40
2022-11-24T14:58:52.625Z,67.02
2022-11-24T15:01:29.597Z,67.91
2022-11-24T15:04:54.272Z,69.52
2022-11-24T15:07:21.769Z,70.35
2022-11-24T15:09:48.117Z,70.46
2022-11-24T15:12:34.701Z,70.75
2022-11-24T15:15:20.264Z,71.05
2022-11-24T15:17:52.532Z,71.21
2022-11-24T15:20:26.847Z,71.56
2022-11-24T15:23:22.128Z,72.97
2022-11-24T15:25:53.063Z,73.32
2022-11-24T15:28:24.526Z,74.22
2022-11-24T15:30:52.387Z,75.08
2022-11-24T15:33:19.743Z,76.29
2022-11-24T15:35:46.418Z,77.62
2022-11-24T15:38:13.393Z,77.58
2022-11-24T15:40:42.375Z,77.78
2022-11-24T15:43:36.314Z,79.54
2022-11-24T15:46:04.267Z,78.99
2022-11-24T15:48:31.049Z,78.48
2022-11-24T15:50:59.200Z,78.50
2022-11-24T15:53:30.855Z,79.40
2022-11-24T15:55:58.691Z,79.34
2022-11-24T15:58:25.229Z,79.76
2022-11-24T16:00:53.500Z,80.62
2022-11-24T16:06:16.747Z,83.65
2022-11-24T16:08:45.842Z,84.06
2022-11-24T16:11:12.450Z,82.19
2022-11-24T16:13:39.021Z,82.56
2022-11-24T16:16:06.240Z,83.07
2022-11-24T16:18:32.796Z,83.86
2022-11-24T16:20:59.244Z,83.55
2022-11-24T16:23:25.677Z,82.84
2022-11-24T16:25:52.198Z,83.58
2022-11-24T16:28:20.173Z,82.72
2022-11-24T16:30:50.601Z,83.08
2022-11-24T16:33:17.554Z,83.55
2022-11-24T16:35:48.031Z,82.92
2022-11-24T16:38:16.334Z,83.13
2022-11-24T16:40:43.040Z,82.98
2022-11-24T16:43:09.855Z,83.02
2022-11-24T16:45:38.587Z,84.48
2022-11-24T16:48:08.888Z,85.42
2022-11-24T16:50:37.376Z,86.45
2022-11-24T16:53:03.979Z,86.04
2022-11-24T16:55:30.567Z,86.83
2022-11-24T16:57:57.031Z,86.92
2022-11-24T17:00:23.725Z,86.20
2022-11-24T17:02:50.221Z,85.56
2022-11-24T17:05:17.167Z,85.07
2022-11-24T17:07:43.770Z,85.97
2022-11-24T17:10:10.453Z,88.21
2022-11-24T17:12:37.756Z,88.83
2022-11-24T17:18:22.290Z,88.44
2022-11-24T17:20:38.463Z,87.36
2022-11-24T17:23:04.893Z,86.16
2022-11-24T17:25:32.843Z,85.66
2022-11-24T17:27:59.271Z,85.20
2022-11-24T17:30:25.784Z,84.63
2022-11-24T17:32:56.597Z,84.88
2022-11-24T17:35:23.714Z,86.14
2022-11-24T17:37:50.198Z,87.43
2022-11-24T17:40:34.368Z,88.25
2022-11-24T17:43:01.719Z,88.85
2022-11-24T17:45:29.573Z,89.09
2022-11-24T17:47:58.356Z,86.65
2022-11-24T17:50:26.243Z,88.17
2022-11-24T17:52:53.830Z,87.85
2022-11-24T17:55:20.805Z,88.68
2022-11-24T17:57:47.486Z,90.55
2022-11-24T18:00:14.610Z,91.13
2022-11-24T18:02:41.252Z,90.77
2022-11-24T18:05:08.246Z,88.92
2022-11-24T18:07:38.133Z,87.96
2022-11-24T18:10:05.233Z,86.77
2022-11-24T18:12:32.965Z,89.55
2022-11-24T18:14:59.873Z,89.63
2022-11-24T18:17:26.454Z,90.09
2022-11-24T18:19:52.861Z,89.55
2022-11-24T18:22:36.612Z,88.60
2022-11-24T18:25:06.596Z,88.36
2022-11-24T18:27:33.083Z,88.69
2022-11-24T18:29:59.680Z,88.41
2022-11-24T18:32:26.200Z,89.58
2022-11-24T18:34:52.723Z,88.01
2022-11-24T18:37:19.189Z,88.62
2022-11-24T18:39:45.769Z,89.45
2022-11-24T18:42:12.240Z,88.77
2022-11-24T18:44:38.862Z,88.87
2022-11-24T18:47:05.665Z,89.26
2022-11-24T18:49:32.334Z,90.22
2022-11-24T18:51:59.325Z,89.58
2022-11-24T18:54:29.397Z,89.15
2022-11-24T18:56:58.957Z,87.97
2022-11-24T18:59:28.266Z,89.32
2022-11-24T19:01:54.823Z,88.91
2022-11-24T19:04:21.351Z,87.84
2022-11-24T19:06:47.852Z,89.18
2022-11-24T19:09:18.553Z,88.86
2022-11-24T19:11:47.022Z,89.00
2022-11-24T19:14:16.057Z,88.31
2022-11-24T19:16:43.486Z,88.84
2022-11-24T19:19:12.306Z,88.46
2022-11-24T19:21:40.132Z,88.62
2022-11-24T19:24:09.935Z,89.15
2022-11-24T19:26:37.813Z,88.75
2022-11-24T19:29:05.688Z,89.56
2022-11-24T19:31:32.740Z,90.05
2022-11-24T19:33:59.813Z,90.19
2022-11-24T19:36:26.983Z,90.17
2022-11-24T19:38:55.669Z,89.58
2022-11-24T19:41:24.821Z,89.42
2022-11-24T19:43:54.854Z,89.92
2022-11-24T19:46:23.215Z,90.66
2022-11-24T19:48:51.038Z,90.94
2022-11-24T19:51:20.540Z,90.79
2022-11-24T19:53:47.291Z,90.58
2022-11-24T19:56:17.107Z,90.77
2022-11-24T19:58:43.874Z,90.56
2022-11-24T20:01:13.584Z,90.16
2022-11-24T20:03:41.967Z,91.86
2022-11-24T20:06:09.966Z,92.55
2022-11-24T20:08:37.848Z,92.40
2022-11-24T20:11:15.157Z,92.45
2022-11-24T20:13:43.566Z,92.26
2022-11-24T20:16:16.071Z,91.84
2022-11-24T20:18:44.950Z,92.70
2022-11-24T20:21:12.725Z,93.60
2022-11-24T20:23:40.602Z,94.23
2022-11-24T20:26:19.713Z,94.12
2022-11-24T20:28:47.414Z,92.93
2022-11-24T20:31:17.045Z,92.32
2022-11-24T20:33:44.746Z,92.18
2022-11-24T20:36:13.873Z,92.54
2022-11-24T20:38:41.715Z,94.30
2022-11-24T20:41:11.237Z,94.53
2022-11-24T20:43:39.427Z,93.54
2022-11-24T20:46:09.311Z,93.23
2022-11-24T20:48:36.817Z,92.86
2022-11-24T20:51:11.766Z,92.01
2022-11-24T20:53:39.033Z,92.11
2022-11-24T20:56:11.849Z,92.16
2022-11-24T20:58:38.767Z,92.52
2022-11-24T21:01:07.779Z,93.15
2022-11-24T21:03:39.681Z,92.71
2022-11-24T21:06:10.450Z,92.79
2022-11-24T21:08:38.548Z,93.19
2022-11-24T21:11:06.802Z,92.92
2022-11-24T21:13:34.993Z,93.18
2022-11-24T21:16:16.498Z,93.29
2022-11-24T21:18:44.811Z,93.33
2022-11-24T21:21:12.423Z,94.06
2022-11-24T21:23:38.993Z,93.62
2022-11-24T21:26:13.034Z,93.79
2022-11-24T21:28:44.572Z,94.26
2022-11-24T21:31:16.713Z,94.33
2022-11-24T21:33:46.918Z,93.92
2022-11-24T21:36:15.203Z,93.57
2022-11-24T21:38:42.816Z,93.84
2022-11-24T21:41:11.442Z,94.10
2022-11-24T21:43:38.678Z,94.15
2022-11-24T21:46:07.713Z,94.20
2022-11-24T21:48:35.560Z,93.85
2022-11-24T21:51:04.139Z,94.07
2022-11-24T21:53:32.391Z,94.68
2022-11-24T21:56:02.120Z,94.10
2022-11-24T21:58:29.259Z,94.47
2022-11-24T22:01:01.880Z,94.98
2022-11-24T22:03:28.422Z,95.70
2022-11-24T22:05:56.445Z,96.08
2022-11-24T22:08:24.184Z,96.28
2022-11-24T22:10:50.645Z,95.76
2022-11-24T22:13:17.472Z,95.26
2022-11-24T22:15:44.170Z,94.63
2022-11-24T22:18:11.079Z,94.25
2022-11-24T22:20:37.860Z,93.90
2022-11-24T22:23:04.546Z,94.96
2022-11-24T22:25:31.058Z,96.07
2022-11-24T22:27:58.323Z,96.87
2022-11-24T22:30:24.845Z,95.75
2022-11-24T22:32:51.349Z,95.98
2022-11-24T22:35:17.865Z,95.30
2022-11-24T22:37:44.292Z,95.60
2022-11-24T22:40:11.071Z,95.26
2022-11-24T22:42:37.464Z,94.87
2022-11-24T22:45:04.285Z,94.73
2022-11-24T22:47:30.732Z,94.31
2022-11-24T22:49:57.184Z,94.45
2022-11-24T22:52:23.617Z,94.17
2022-11-24T22:54:50.009Z,93.61
2022-11-24T22:57:16.855Z,93.37
2022-11-24T22:59:43.396Z,93.19
2022-11-24T23:02:09.855Z,93.75
2022-11-24T23:04:36.438Z,93.40
2022-11-24T23:07:03.227Z,94.16
2022-11-24T23:09:29.746Z,94.05
2022-11-24T23:11:56.188Z,93.80
2022-11-24T23:14:22.851Z,96.25
2022-11-24T23:16:49.381Z,98.73
2022-11-24T23:19:15.855Z,99.78
2022-11-24T23:21:42.249Z,98.83
2022-11-24T23:24:10.386Z,97.59
2022-11-24T23:26:39.959Z,96.58
2022-11-24T23:29:07.210Z,95.79
2022-11-24T23:31:33.739Z,95.47
2022-11-24T23:34:02.827Z,96.04
2022-11-24T23:36:30.881Z,95.94
2022-11-24T23:39:02.758Z,95.18
2022-11-24T23:41:30.606Z,95.59
2022-11-24T23:43:57.285Z,95.52
2022-11-24T23:46:25.587Z,95.00
2022-11-24T23:48:53.960Z,94.83
2022-11-24T23:51:23.059Z,95.15
2022-11-24T23:53:50.101Z,95.55
2022-11-24T23:56:19.210Z,95.33
2022-11-24T23:58:46.061Z,95.12
